Accueil
Images satellite Prévisions 15 joursClimatMétéo marine Cyclones Foudre AéroportsFAQ Actualités A propos
Météo : Europe Afrique Amérique du Nord Amérique du Sud Asie Australie-Océanie Autres
Langues Contact

Coxyde, Belgique

latitude: 51-05N, longitude: 002-39E, altitude: 4 m


METAR: EBFN 301755Z 17007KT 7000 FEW040 SCT250 15/13 Q1021 WHT
TAF: EBFN 301141Z 3013/3022 18008KT 8000 FEW040 SCT130 TEMPO 3013/3015 7000 SCT070 BKN100

Heure: 19:10 (18:10 UTC)

Observation

Le bulletin a été fait il y a 15 minutes, à 17:55 UTC
Vent 7 kt de sud
Température 15°C
Humidité 88%
Pression 1021 hPa
Visibilité: 7000 m
Quelques nuages à une hauteur de 4000 ft
Nuages épars à une hauteur de 25000 ft

Changer d'unités

Prévision

Le bulletin a été fait il y a 6 heures et 29 minutes, à 11:41 UTC
Prévision valable du 30 à 13 UTC au 30 à 22 UTC
Vent 8 kt de sud
Visibilité: 8000 m
Quelques nuages à une hauteur de 4000 ft
Nuages épars à une hauteur de 13000 ft
Temporairement
du 30 à 13 UTC au 30 à 15 UTC
Visibilité: 7000 m
Nuages épars à une hauteur de 7000 ft
Nuages fragmentés à une hauteur de 10000 ft
Les informations qui figurent sur ce site font l'objet d'une clause de non-responsabilité
Météo : Europe Afrique Amérique du Nord Amérique du Sud Asie Australie-Océanie Autres
Images satellite Prévisions 15 joursClimatMétéo marine Cyclones Foudre AéroportsFAQ Langues Contact Actualités A propos